Pangborn Memorial Airport
KEAT : now visible

Aeroporto :











RITROVATECI SU...

 
LOGIN :

Iscrizione | Disclaimer

   EN    FR    IT 

 









Sommario :    VFR   VFR Marginale   IFR   IFR Intensivo   IFR Molto Intensivo
Visibilità : 
Base nubi : 
>= 8 km
>= 3000ft
5 / 8 km
1000 / 3000 ft
1500m / 5 km
500 / 1000 ft
800 / 1500m
200 / 500 ft
< 800m
< 200 ft
Simboli :   Temporali  Nebbia  Neve Forte  Precipitazioni Forti  Vento > 20 kt






- Altitudine del aeroporto : 1249 ft


KEAT - Pangborn Memorial

ULTIMO METAR :
  • 250955Z AUTO 34008KT 10SM SCT100 24/13 A2998 RMK AO2 SLP140 T02390133

METARs OBSOLETI :
  • 250855Z AUTO 34010KT 10SM FEW110 24/13 A2997 RMK AO2 SLP138 T02440133 50007
  • 250755Z AUTO 34010KT 10SM CLR 25/13 A2998 RMK AO2 SLP139 T02500133 403440206

TAF KEAT
Valido dal 25 a 07 ore il 26 a 06 ore UTC


250721Z 2507/2606 30009KT P6SM SCT250
FM251200 30010KT P6SM SCT250
FM251700 28007KT P6SM FEW250
FIR KZSE / America del Nord



MetMap, La meteo Aeronautica in un colpo d'occhio ! - Copyright ORBIFLY Dicembre 2007 - Disclaimer

ORBIFLY MET'MAP TEAM :

Programmazione e sviluppo : Alexandra Zaïnal
Concezione : Baudouin d'Aumeries
Aiuto per la programmazione : Marc-Olivier Méhu
Supporto tecnico e logistico : Manuel Goepfert
Aiuto per la traduzione : Arnaldo La Scala

Contatto : metmap@orbifly.com




FONTI E CREDITI :

   NOAA       Earth
Advisory